Time;durP1;ratioP1;P1;durP2;ratioP2;P2;SDS_P1;SDS_P2;PMS_P1;PMS_P2;Temp;Humidity;BMP_temperature;BMP_pressure;BME280_temperature;BME280_humidity;BME280_pressure;Samples;Min_cycle;Max_cycle;Signal;HPM_P1;HPM_P2
2022/11/09 00:01:21;;;;;;;9.77;3.00;;;14.30;99.90;;;;;;5089037;28;20048;-84
2022/11/09 00:03:47;;;;;;;7.20;1.80;;;14.30;99.90;;;;;;5072559;28;20028;-84
2022/11/09 00:06:13;;;;;;;6.05;1.60;;;14.20;99.90;;;;;;5073967;28;20505;-85
2022/11/09 00:08:40;;;;;;;8.25;2.95;;;14.20;99.90;;;;;;5073895;28;20127;-84
2022/11/09 00:11:10;;;;;;;9.23;2.72;;;14.20;99.90;;;;;;5073849;28;20035;-85
2022/11/09 00:13:40;;;;;;;5.40;1.80;;;14.30;99.90;;;;;;5073460;28;20040;-84
2022/11/09 00:16:08;;;;;;;6.45;1.92;;;14.30;99.90;;;;;;5073805;28;20036;-84
2022/11/09 00:18:34;;;;;;;8.23;2.60;;;14.20;99.90;;;;;;5073641;28;20043;-84
2022/11/09 00:21:08;;;;;;;9.18;2.60;;;14.30;99.90;;;;;;5073439;28;20044;-84
2022/11/09 00:23:34;;;;;;;8.35;2.75;;;14.30;99.90;;;;;;5090002;28;20117;-84
2022/11/09 00:26:02;;;;;;;8.60;1.95;;;14.30;99.90;;;;;;5090684;28;20128;-84
2022/11/09 00:28:27;;;;;;;7.78;3.13;;;14.30;99.90;;;;;;5073633;28;20032;-84
2022/11/09 00:30:58;;;;;;;7.25;2.38;;;14.20;99.90;;;;;;5090410;28;20101;-85
2022/11/09 00:33:24;;;;;;;9.80;2.55;;;14.20;99.90;;;;;;5073032;28;20509;-85
2022/11/09 00:35:49;;;;;;;6.03;1.58;;;14.30;99.90;;;;;;5089664;28;20131;-84
2022/11/09 00:38:15;;;;;;;7.93;2.00;;;14.20;99.90;;;;;;5090138;28;20043;-85
2022/11/09 00:40:40;;;;;;;8.80;1.83;;;14.20;99.90;;;;;;5089808;28;20032;-84
2022/11/09 00:43:06;;;;;;;8.32;2.60;;;14.10;99.90;;;;;;5072610;28;20543;-85
2022/11/09 00:45:31;;;;;;;8.45;2.40;;;14.20;99.90;;;;;;5072777;28;20036;-85
2022/11/09 00:47:57;;;;;;;6.40;1.60;;;14.20;99.90;;;;;;5090023;28;20142;-84
2022/11/09 00:50:22;;;;;;;10.60;2.08;;;14.20;99.90;;;;;;5072956;28;20047;-84
2022/11/09 00:52:48;;;;;;;7.18;2.15;;;14.10;99.90;;;;;;5072661;28;20036;-85
2022/11/09 00:55:14;;;;;;;8.57;2.40;;;14.20;99.90;;;;;;5072402;28;20077;-85
2022/11/09 00:57:39;;;;;;;9.88;2.90;;;14.20;99.90;;;;;;5089769;28;20131;-85
2022/11/09 01:00:05;;;;;;;10.02;2.05;;;14.20;99.90;;;;;;5089665;28;20032;-85
2022/11/09 01:02:31;;;;;;;10.57;2.25;;;14.20;99.90;;;;;;5089635;28;20515;-84
2022/11/09 01:04:57;;;;;;;8.35;2.47;;;14.20;99.90;;;;;;5072629;28;20032;-84
2022/11/09 01:07:22;;;;;;;7.45;1.70;;;14.30;99.90;;;;;;5072675;28;20035;-84
2022/11/09 01:09:48;;;;;;;7.15;1.85;;;14.30;99.90;;;;;;5087910;28;20684;-85
2022/11/09 01:12:13;;;;;;;10.18;2.80;;;14.20;99.90;;;;;;5086466;28;20044;-85
2022/11/09 01:14:39;;;;;;;8.48;2.60;;;14.20;99.90;;;;;;5092165;28;20040;-84
2022/11/09 01:17:04;;;;;;;5.80;1.88;;;14.30;99.90;;;;;;5076443;28;20524;-84
2022/11/09 01:19:30;;;;;;;7.18;2.17;;;14.30;99.90;;;;;;5077056;28;20036;-84
2022/11/09 01:21:55;;;;;;;9.70;3.13;;;14.30;99.90;;;;;;5093893;28;20096;-84
2022/11/09 01:24:21;;;;;;;9.82;2.70;;;14.30;99.90;;;;;;5093587;28;20450;-84
2022/11/09 01:26:46;;;;;;;8.35;1.80;;;14.30;99.90;;;;;;5092833;28;20513;-85
2022/11/09 01:29:12;;;;;;;6.97;2.00;;;14.30;99.90;;;;;;5091231;28;20068;-84
2022/11/09 01:31:37;;;;;;;5.28;1.63;;;14.30;99.90;;;;;;5076843;28;20040;-84
2022/11/09 01:34:03;;;;;;;10.85;2.58;;;14.30;99.90;;;;;;5093239;28;20036;-85
2022/11/09 01:36:28;;;;;;;8.63;2.35;;;14.20;99.90;;;;;;5093623;28;20086;-84
2022/11/09 01:38:54;;;;;;;7.70;1.90;;;14.30;99.90;;;;;;5093447;28;20032;-84
2022/11/09 01:41:26;;;;;;;6.05;1.60;;;14.20;99.90;;;;;;5093530;28;20404;-84
2022/11/09 01:44:07;;;;;;;6.90;1.60;;;14.20;99.90;;;;;;5076103;28;20040;-84
2022/11/09 01:46:50;;;;;;;7.97;1.90;;;14.10;99.90;;;;;;5093478;28;20722;-84
2022/11/09 01:49:51;;;;;;;7.75;2.40;;;14.20;99.90;;;;;;5093354;28;20042;-84
2022/11/09 01:52:22;;;;;;;11.18;2.88;;;14.10;99.90;;;;;;5076021;28;20107;-84
2022/11/09 01:55:01;;;;;;;8.23;1.90;;;14.10;99.90;;;;;;5093355;28;20515;-84
2022/11/09 01:57:32;;;;;;;9.50;1.70;;;14.10;99.90;;;;;;5093233;28;20032;-84
2022/11/09 02:00:04;;;;;;;4.63;1.50;;;14.00;99.90;;;;;;5076037;28;20554;-84
2022/11/09 02:02:29;;;;;;;7.32;1.70;;;14.00;99.90;;;;;;5092895;28;20040;-84
2022/11/09 02:05:04;;;;;;;6.95;1.70;;;14.00;99.90;;;;;;5092918;28;20032;-84
2022/11/09 02:07:29;;;;;;;8.32;1.83;;;14.00;99.90;;;;;;5076092;28;20043;-84
2022/11/09 02:10:02;;;;;;;6.63;1.70;;;14.00;99.90;;;;;;5093304;28;20036;-84
2022/11/09 02:12:31;;;;;;;7.35;1.90;;;13.90;99.90;;;;;;5076007;28;20047;-84
2022/11/09 02:14:58;;;;;;;10.55;2.80;;;13.90;99.90;;;;;;5092764;28;20528;-84
2022/11/09 02:17:25;;;;;;;9.73;2.58;;;14.00;99.90;;;;;;5076084;28;20472;-84
2022/11/09 02:19:50;;;;;;;6.65;1.75;;;14.00;99.90;;;;;;5093037;28;20059;-84
2022/11/09 02:22:16;;;;;;;5.43;1.35;;;14.00;99.90;;;;;;5091238;28;20405;-84
2022/11/09 02:24:41;;;;;;;7.30;1.52;;;13.90;99.90;;;;;;5092592;28;20032;-84
2022/11/09 02:27:07;;;;;;;7.82;1.73;;;13.90;99.90;;;;;;5092784;28;20446;-84
2022/11/09 02:29:39;;;;;;;5.88;1.55;;;13.90;99.90;;;;;;5092566;28;20047;-84
2022/11/09 02:32:15;;;;;;;9.70;2.45;;;13.90;99.90;;;;;;5092152;28;20055;-84
2022/11/09 02:34:41;;;;;;;10.75;3.45;;;13.90;99.90;;;;;;5075668;28;20047;-84
2022/11/09 02:37:06;;;;;;;16.75;3.28;;;13.90;99.90;;;;;;5092388;28;20550;-83
2022/11/09 02:39:33;;;;;;;8.57;1.50;;;13.80;99.90;;;;;;5075726;28;20042;-84
2022/11/09 02:42:02;;;;;;;7.35;1.95;;;13.80;99.90;;;;;;5075569;28;20113;-84
2022/11/09 02:44:31;;;;;;;6.10;1.60;;;13.70;99.90;;;;;;5092466;28;20040;-84
2022/11/09 02:46:57;;;;;;;9.02;2.40;;;13.60;99.90;;;;;;5075428;28;20093;-84
2022/11/09 02:49:22;;;;;;;8.00;1.60;;;13.70;99.90;;;;;;5092471;28;20048;-84
2022/11/09 02:51:48;;;;;;;9.65;1.92;;;13.60;99.90;;;;;;5075665;28;20035;-84
2022/11/09 02:54:13;;;;;;;10.23;2.50;;;13.60;99.90;;;;;;5091987;28;20503;-83
2022/11/09 02:56:39;;;;;;;7.07;2.30;;;13.60;99.90;;;;;;5092303;28;20422;-84
2022/11/09 02:59:04;;;;;;;6.43;1.85;;;13.70;99.90;;;;;;5075154;28;20089;-84
2022/11/09 03:01:30;;;;;;;9.82;1.85;;;13.60;99.90;;;;;;5091754;28;20042;-84
2022/11/09 03:03:55;;;;;;;8.00;1.65;;;13.60;99.90;;;;;;5091649;28;20032;-84
2022/11/09 03:06:33;;;;;;;5.65;1.48;;;13.50;99.90;;;;;;5091865;28;20036;-84
2022/11/09 03:09:01;;;;;;;7.22;1.52;;;13.50;99.90;;;;;;5074988;28;20489;-84
2022/11/09 03:11:27;;;;;;;8.38;1.75;;;13.50;99.90;;;;;;5091354;28;20051;-84
2022/11/09 03:13:53;;;;;;;11.05;2.60;;;13.60;99.90;;;;;;5074632;28;20040;-84
2022/11/09 03:16:18;;;;;;;8.82;2.75;;;13.60;99.90;;;;;;5091726;28;20047;-84
2022/11/09 03:18:44;;;;;;;10.30;2.25;;;13.70;99.90;;;;;;5091709;28;20044;-84
2022/11/09 03:21:09;;;;;;;7.53;1.52;;;13.60;99.90;;;;;;5091450;28;20083;-83
2022/11/09 03:23:35;;;;;;;8.85;1.77;;;13.50;99.90;;;;;;5091073;28;20036;-84
2022/11/09 03:26:01;;;;;;;9.45;1.67;;;13.50;99.90;;;;;;5074631;28;20184;-84
2022/11/09 03:28:26;;;;;;;8.90;1.85;;;13.50;99.90;;;;;;5074626;28;20067;-84
2022/11/09 03:30:52;;;;;;;6.00;1.30;;;13.50;99.90;;;;;;5091115;28;20156;-84
2022/11/09 03:33:18;;;;;;;8.65;2.47;;;13.50;99.90;;;;;;5073848;28;20046;-84
2022/11/09 03:35:43;;;;;;;8.68;1.75;;;13.60;99.90;;;;;;5074613;28;20040;-84
2022/11/09 03:38:09;;;;;;;11.93;2.25;;;13.60;99.90;;;;;;5091254;28;20504;-84
2022/11/09 03:40:34;;;;;;;7.07;1.88;;;13.60;99.90;;;;;;5091195;28;20076;-84
2022/11/09 03:43:00;;;;;;;8.73;1.75;;;13.60;99.90;;;;;;5090802;28;20542;-84
2022/11/09 03:45:28;;;;;;;11.20;2.58;;;13.50;99.90;;;;;;5091076;28;20028;-84
2022/11/09 03:47:59;;;;;;;7.20;1.85;;;13.60;99.90;;;;;;5091450;28;20047;-84
2022/11/09 03:50:26;;;;;;;6.85;1.65;;;13.50;99.90;;;;;;5091124;28;20501;-84
2022/11/09 03:52:52;;;;;;;8.48;2.33;;;13.50;99.90;;;;;;5073784;28;20047;-83
2022/11/09 03:55:17;;;;;;;10.73;2.75;;;13.50;99.90;;;;;;5073932;28;20051;-84
2022/11/09 03:57:45;;;;;;;7.63;1.40;;;13.50;99.90;;;;;;5074052;28;20101;-84
2022/11/09 04:00:12;;;;;;;8.20;2.08;;;13.40;99.90;;;;;;5090757;28;20050;-84
2022/11/09 04:02:38;;;;;;;12.00;1.75;;;13.40;99.90;;;;;;5073984;28;20476;-84
2022/11/09 04:05:04;;;;;;;6.28;2.20;;;13.40;99.90;;;;;;5090633;28;20071;-84
2022/11/09 04:07:30;;;;;;;8.55;2.60;;;13.40;99.90;;;;;;5073850;28;20508;-84
2022/11/09 04:09:56;;;;;;;6.35;1.52;;;13.50;99.90;;;;;;5090893;28;20044;-84
2022/11/09 04:12:21;;;;;;;9.63;2.70;;;13.50;99.90;;;;;;5090398;28;20040;-83
2022/11/09 04:14:47;;;;;;;9.40;2.65;;;13.50;99.90;;;;;;5074101;28;20047;-84
2022/11/09 04:17:12;;;;;;;4.38;1.77;;;13.50;99.90;;;;;;5073883;28;20544;-84
2022/11/09 04:19:38;;;;;;;8.27;1.52;;;13.50;99.90;;;;;;5090455;28;20409;-84
2022/11/09 04:22:03;;;;;;;5.85;1.42;;;13.50;99.90;;;;;;5090211;28;20080;-84
2022/11/09 04:24:29;;;;;;;12.05;3.10;;;13.50;99.90;;;;;;5090153;28;20044;-84
2022/11/09 04:26:55;;;;;;;6.22;1.67;;;13.50;99.90;;;;;;5090382;28;20036;-84
2022/11/09 04:29:20;;;;;;;6.65;1.60;;;13.50;99.90;;;;;;5090529;28;20035;-84
2022/11/09 04:31:49;;;;;;;6.32;1.80;;;13.50;99.90;;;;;;5073548;28;20040;-84
2022/11/09 04:34:16;;;;;;;9.25;1.88;;;13.50;99.90;;;;;;5073498;28;20486;-84
2022/11/09 04:36:41;;;;;;;12.98;3.10;;;13.40;99.90;;;;;;5073761;28;20123;-84
2022/11/09 04:39:07;;;;;;;7.93;1.98;;;13.50;99.90;;;;;;5090273;28;20119;-84
2022/11/09 04:41:33;;;;;;;8.85;1.98;;;13.40;99.90;;;;;;5090362;28;20047;-84
2022/11/09 04:43:58;;;;;;;7.43;1.70;;;13.40;99.90;;;;;;5089389;28;20067;-84
2022/11/09 04:46:24;;;;;;;10.57;2.60;;;13.40;99.90;;;;;;5088189;28;20085;-84
2022/11/09 04:48:49;;;;;;;8.52;2.00;;;13.40;99.90;;;;;;5090007;28;20093;-84
2022/11/09 04:51:15;;;;;;;11.88;2.78;;;13.40;99.90;;;;;;5090179;28;20405;-84
2022/11/09 04:53:40;;;;;;;11.93;2.78;;;13.50;99.90;;;;;;5089706;28;20039;-84
2022/11/09 04:56:06;;;;;;;6.40;1.58;;;13.50;99.90;;;;;;5090254;28;20047;-84
2022/11/09 04:58:33;;;;;;;5.53;1.75;;;13.40;99.90;;;;;;5073439;28;20043;-84
2022/11/09 05:01:10;;;;;;;8.32;1.70;;;13.40;99.90;;;;;;5073138;28;20040;-84
2022/11/09 05:03:36;;;;;;;6.50;1.73;;;13.40;99.90;;;;;;5089816;28;20067;-84
2022/11/09 05:06:30;;;;;;;8.13;1.90;;;13.30;99.90;;;;;;5089882;28;20090;-84
2022/11/09 05:08:48;;;;;;;6.07;1.85;;;13.30;99.90;;;;;;5090341;28;20051;-84
2022/11/09 05:11:13;;;;;;;10.15;2.92;;;13.30;99.90;;;;;;5073209;28;20052;-84
2022/11/09 05:13:39;;;;;;;5.80;1.70;;;13.30;99.90;;;;;;5072985;28;20493;-84
2022/11/09 05:16:04;;;;;;;7.78;2.10;;;13.30;99.90;;;;;;5090234;28;20044;-84
2022/11/09 05:18:30;;;;;;;5.40;1.60;;;13.20;99.90;;;;;;5073081;28;20405;-84
2022/11/09 05:21:00;;;;;;;9.95;2.10;;;13.20;99.90;;;;;;5089798;28;20117;-84
2022/11/09 05:26:10;;;;;;;10.50;2.08;;;13.20;99.90;;;;;;5089962;28;20036;-84
2022/11/09 05:28:36;;;;;;;6.32;1.65;;;13.20;99.90;;;;;;5073333;28;20036;-84
2022/11/09 05:31:01;;;;;;;6.30;1.65;;;13.10;99.90;;;;;;5089757;28;20078;-84
2022/11/09 05:33:27;;;;;;;10.23;1.98;;;13.10;99.90;;;;;;5072616;28;20600;-84
2022/11/09 05:35:54;;;;;;;5.28;1.40;;;13.10;99.90;;;;;;5073253;28;20048;-84
2022/11/09 05:38:20;;;;;;;6.82;1.60;;;13.10;99.90;;;;;;5090093;28;20088;-84
2022/11/09 05:40:47;;;;;;;6.88;1.70;;;13.10;99.90;;;;;;5089934;28;20119;-84
2022/11/09 05:43:13;;;;;;;9.73;2.67;;;13.10;99.90;;;;;;5089338;28;20043;-84
2022/11/09 05:45:39;;;;;;;9.55;2.38;;;13.10;99.90;;;;;;5089667;28;20032;-84
2022/11/09 05:48:05;;;;;;;9.02;2.58;;;13.10;99.90;;;;;;5072969;28;20079;-84
2022/11/09 05:50:31;;;;;;;6.30;1.92;;;13.20;99.90;;;;;;5089727;28;20505;-84
2022/11/09 05:53:00;;;;;;;6.22;1.83;;;13.10;99.90;;;;;;5072315;28;20089;-83
2022/11/09 05:55:27;;;;;;;7.45;2.00;;;13.10;99.90;;;;;;5089609;28;20036;-84
2022/11/09 05:57:53;;;;;;;8.70;1.85;;;13.00;99.90;;;;;;5075749;28;20044;-84
2022/11/09 06:00:19;;;;;;;5.35;1.25;;;12.90;99.90;;;;;;5075899;28;20562;-84
2022/11/09 06:02:45;;;;;;;9.43;1.55;;;12.90;99.90;;;;;;5076023;28;20040;-83
2022/11/09 06:05:11;;;;;;;9.43;2.60;;;12.90;99.90;;;;;;5076111;28;20047;-84
2022/11/09 06:07:36;;;;;;;10.60;3.20;;;13.00;99.90;;;;;;5093103;28;20040;-84
2022/11/09 06:10:03;;;;;;;9.90;1.83;;;12.90;99.90;;;;;;5092938;28;20045;-84
2022/11/09 06:12:30;;;;;;;6.63;1.55;;;12.90;99.90;;;;;;5092869;28;20097;-84
2022/11/09 06:14:55;;;;;;;7.40;1.77;;;12.90;99.90;;;;;;5076063;28;20040;-84
2022/11/09 06:17:21;;;;;;;9.60;1.67;;;12.80;99.90;;;;;;5092980;28;20505;-83
2022/11/09 06:19:46;;;;;;;6.13;1.55;;;12.80;99.90;;;;;;5075968;28;20048;-83
2022/11/09 06:22:12;;;;;;;7.97;1.83;;;12.80;99.90;;;;;;5092435;28;20036;-84
2022/11/09 06:24:38;;;;;;;4.43;1.30;;;12.80;99.90;;;;;;5092689;28;20044;-84
2022/11/09 06:27:03;;;;;;;7.57;1.83;;;12.80;99.90;;;;;;5075710;28;20123;-84
2022/11/09 06:29:29;;;;;;;5.13;1.33;;;12.70;99.90;;;;;;5076049;28;20043;-84
2022/11/09 06:31:55;;;;;;;8.20;1.90;;;12.70;99.90;;;;;;5092533;28;20079;-84
2022/11/09 06:34:20;;;;;;;10.23;2.25;;;12.70;99.90;;;;;;5075439;28;20127;-84
2022/11/09 06:36:46;;;;;;;8.13;2.13;;;12.70;99.90;;;;;;5075742;28;20403;-84
2022/11/09 06:39:11;;;;;;;12.40;1.98;;;12.70;99.90;;;;;;5092493;28;20036;-84
2022/11/09 06:41:37;;;;;;;11.18;1.63;;;12.60;99.90;;;;;;5092464;28;20078;-84
2022/11/09 06:44:04;;;;;;;17.27;2.42;;;12.60;99.90;;;;;;5092226;28;20125;-83
2022/11/09 06:46:31;;;;;;;7.45;1.75;;;12.60;99.90;;;;;;5092283;28;20036;-84
2022/11/09 06:48:56;;;;;;;7.38;1.75;;;12.60;99.90;;;;;;5092466;28;20040;-84
2022/11/09 06:51:22;;;;;;;9.15;1.95;;;12.60;99.90;;;;;;5092588;28;20447;-84
2022/11/09 06:53:48;;;;;;;9.80;1.70;;;12.60;99.90;;;;;;5091771;28;20500;-84
2022/11/09 06:56:13;;;;;;;9.77;1.70;;;12.60;99.90;;;;;;5092126;28;20135;-84
2022/11/09 06:58:39;;;;;;;9.73;1.95;;;12.50;99.90;;;;;;5092266;28;20044;-84
2022/11/09 07:01:14;;;;;;;8.35;1.98;;;12.60;99.90;;;;;;5091995;28;20032;-84
2022/11/09 07:03:40;;;;;;;10.32;1.95;;;12.50;99.90;;;;;;5075089;28;20062;-84
2022/11/09 07:06:07;;;;;;;6.43;1.52;;;12.50;99.90;;;;;;5092102;28;20493;-84
2022/11/09 07:08:34;;;;;;;8.90;1.40;;;12.50;99.90;;;;;;5091321;28;20036;-84
2022/11/09 07:11:06;;;;;;;6.43;2.05;;;12.50;99.90;;;;;;5074701;28;20084;-84
2022/11/09 07:13:32;;;;;;;8.48;1.77;;;12.50;99.90;;;;;;5074817;28;20040;-84
2022/11/09 07:15:57;;;;;;;10.52;2.70;;;12.50;99.90;;;;;;5091543;28;20527;-84
2022/11/09 07:18:23;;;;;;;13.38;3.35;;;12.50;99.90;;;;;;5091716;28;20040;-84
2022/11/09 07:20:50;;;;;;;7.15;1.60;;;12.50;99.90;;;;;;5074935;28;20044;-84
2022/11/09 07:23:16;;;;;;;9.95;2.15;;;12.50;99.90;;;;;;5091058;28;20043;-84
2022/11/09 07:25:42;;;;;;;8.13;1.85;;;12.50;99.90;;;;;;5074918;28;20118;-84
2022/11/09 07:28:10;;;;;;;6.95;1.67;;;12.50;99.90;;;;;;5089792;28;20082;-84
2022/11/09 07:30:36;;;;;;;8.45;1.80;;;12.50;99.90;;;;;;5074108;28;20075;-84
2022/11/09 07:33:02;;;;;;;8.43;1.88;;;12.50;99.90;;;;;;5090566;28;20066;-84
2022/11/09 07:35:28;;;;;;;9.13;2.10;;;12.50;99.90;;;;;;5091162;28;20127;-84
2022/11/09 07:37:59;;;;;;;10.85;2.40;;;12.50;99.90;;;;;;5073855;28;20082;-84
2022/11/09 07:40:24;;;;;;;13.75;2.22;;;12.50;99.90;;;;;;5073755;28;20036;-84
2022/11/09 07:42:50;;;;;;;11.20;2.17;;;12.60;99.90;;;;;;5090559;28;20036;-84
2022/11/09 07:45:15;;;;;;;11.95;2.08;;;12.60;99.90;;;;;;5073712;28;20039;-84
2022/11/09 07:47:41;;;;;;;7.32;1.80;;;12.60;99.90;;;;;;5089391;28;20382;-84
2022/11/09 07:50:07;;;;;;;9.18;1.83;;;12.60;99.90;;;;;;5072801;28;20096;-84
2022/11/09 07:52:32;;;;;;;9.15;1.73;;;12.60;99.90;;;;;;5073022;28;20123;-84
2022/11/09 07:54:58;;;;;;;11.45;2.08;;;12.60;99.90;;;;;;5090092;28;20527;-84
2022/11/09 07:57:23;;;;;;;12.50;2.03;;;12.60;99.90;;;;;;5090649;28;20139;-84
2022/11/09 07:59:50;;;;;;;8.35;1.80;;;12.70;99.90;;;;;;5107315;28;20104;-84
2022/11/09 08:02:16;;;;;;;11.65;2.17;;;12.70;99.90;;;;;;5090158;28;20050;-84
2022/11/09 08:04:41;;;;;;;14.50;3.30;;;12.70;99.90;;;;;;5073504;28;20035;-84
2022/11/09 08:07:07;;;;;;;12.15;1.75;;;12.70;99.90;;;;;;5090084;28;20127;-84
2022/11/09 08:09:32;;;;;;;10.35;2.22;;;12.70;99.90;;;;;;5073610;28;20081;-84
2022/11/09 08:11:58;;;;;;;9.52;2.10;;;12.70;99.90;;;;;;5090217;28;20044;-84
2022/11/09 08:14:23;;;;;;;10.38;2.35;;;12.70;99.90;;;;;;5073368;28;20127;-84
2022/11/09 08:16:49;;;;;;;12.20;2.58;;;12.80;99.90;;;;;;5073708;28;20489;-84
2022/11/09 08:19:14;;;;;;;9.13;2.13;;;12.80;99.90;;;;;;5089872;28;20492;-84
2022/11/09 08:21:40;;;;;;;9.80;1.92;;;12.80;99.90;;;;;;5089481;28;20040;-84
2022/11/09 08:24:06;;;;;;;8.18;1.77;;;12.80;99.90;;;;;;5072860;28;20032;-84
2022/11/09 08:26:31;;;;;;;14.32;2.20;;;12.80;99.90;;;;;;5090093;28;20043;-84
2022/11/09 08:28:57;;;;;;;8.02;1.80;;;12.80;99.90;;;;;;5089912;28;20032;-84
2022/11/09 08:31:22;;;;;;;12.35;2.53;;;12.90;99.90;;;;;;5090322;28;20063;-84
2022/11/09 08:33:48;;;;;;;8.45;1.92;;;12.90;99.90;;;;;;5073083;28;20405;-84
2022/11/09 08:36:15;;;;;;;12.80;2.40;;;12.90;99.90;;;;;;5090115;28;20681;-84
2022/11/09 08:38:42;;;;;;;14.10;3.47;;;12.90;99.90;;;;;;5090013;28;20077;-84
2022/11/09 08:41:08;;;;;;;8.50;2.03;;;13.00;99.90;;;;;;5089790;28;20044;-84
2022/11/09 08:43:34;;;;;;;6.90;1.80;;;13.10;99.90;;;;;;5089529;28;20043;-84
2022/11/09 08:45:59;;;;;;;11.70;1.75;;;13.10;99.90;;;;;;5090087;28;20044;-84
2022/11/09 08:48:25;;;;;;;8.55;2.00;;;13.10;99.90;;;;;;5089240;28;20435;-84
2022/11/09 08:50:56;;;;;;;11.52;3.25;;;13.10;99.90;;;;;;5072835;28;20497;-84
2022/11/09 08:53:26;;;;;;;8.90;2.28;;;13.20;99.90;;;;;;5089697;28;20060;-84
2022/11/09 08:55:52;;;;;;;13.40;2.40;;;13.30;99.90;;;;;;5090051;28;20123;-84
2022/11/09 08:58:18;;;;;;;5.82;1.30;;;13.30;99.90;;;;;;5089781;28;20469;-84
2022/11/09 09:00:44;;;;;;;9.63;1.58;;;13.30;99.90;;;;;;5089735;28;20047;-84
2022/11/09 09:03:10;;;;;;;13.57;3.60;;;13.30;99.90;;;;;;5089535;28;20036;-84
2022/11/09 09:05:36;;;;;;;10.00;1.65;;;13.40;99.90;;;;;;5071295;28;20082;-84
2022/11/09 09:08:04;;;;;;;11.05;2.20;;;13.40;99.90;;;;;;5089655;28;20127;-84
2022/11/09 09:10:31;;;;;;;8.75;2.17;;;13.40;99.90;;;;;;5089602;28;20083;-84
2022/11/09 09:12:57;;;;;;;12.25;3.13;;;13.50;99.90;;;;;;5087901;28;20044;-84
2022/11/09 09:15:23;;;;;;;9.40;1.88;;;13.60;99.90;;;;;;5089036;28;20054;-84
2022/11/09 09:17:49;;;;;;;8.38;2.08;;;13.60;99.90;;;;;;5072215;28;20051;-84
2022/11/09 09:20:16;;;;;;;9.40;1.80;;;13.60;99.90;;;;;;5071148;28;20158;-84
2022/11/09 09:22:41;;;;;;;8.23;2.67;;;13.70;99.90;;;;;;5071939;28;20028;-84
2022/11/09 09:25:07;;;;;;;11.57;3.30;;;13.70;99.90;;;;;;5088043;28;20405;-84
2022/11/09 09:27:33;;;;;;;14.02;2.78;;;13.80;99.90;;;;;;5088162;28;20042;-84
2022/11/09 09:29:59;;;;;;;11.70;1.88;;;13.80;99.90;;;;;;5071919;28;20489;-84
2022/11/09 09:32:25;;;;;;;10.98;2.50;;;13.90;99.90;;;;;;5090896;28;20040;-84
2022/11/09 09:34:50;;;;;;;11.80;2.15;;;13.90;99.90;;;;;;5075778;28;20147;-83
2022/11/09 09:37:16;;;;;;;14.77;3.75;;;13.90;99.90;;;;;;5075621;28;20055;-84
2022/11/09 09:39:42;;;;;;;16.92;3.65;;;14.00;99.90;;;;;;5092829;28;20047;-84
2022/11/09 09:42:18;;;;;;;11.70;2.97;;;14.10;99.90;;;;;;5075367;28;20028;-84
2022/11/09 09:45:01;;;;;;;8.45;2.15;;;14.10;99.90;;;;;;5075814;28;20039;-84
2022/11/09 09:47:53;;;;;;;10.60;2.28;;;14.10;99.90;;;;;;5075938;28;20404;-83
2022/11/09 09:50:39;;;;;;;13.85;3.47;;;14.10;99.90;;;;;;5075474;28;20058;-84
2022/11/09 09:53:32;;;;;;;15.13;3.28;;;14.10;99.90;;;;;;5091922;28;20528;-84
2022/11/09 09:56:29;;;;;;;15.88;2.75;;;14.20;99.90;;;;;;5126468;27;20051;-84
2022/11/09 09:59:27;;;;;;;12.77;2.53;;;14.20;99.90;;;;;;5091555;28;20052;-84
2022/11/09 10:01:56;;;;;;;10.90;2.38;;;14.20;99.90;;;;;;5075183;28;20093;-84
2022/11/09 10:04:29;;;;;;;13.80;3.30;;;14.20;99.90;;;;;;5091991;28;20039;-84
2022/11/09 10:07:21;;;;;;;13.07;3.70;;;14.30;99.90;;;;;;5091486;28;20519;-84
2022/11/09 10:10:01;;;;;;;12.15;2.53;;;14.30;99.90;;;;;;5075527;28;20040;-84
2022/11/09 10:12:48;;;;;;;8.15;2.35;;;14.40;99.90;;;;;;5074823;28;20040;-84
2022/11/09 10:15:17;;;;;;;9.25;1.90;;;14.30;99.90;;;;;;5091269;28;20043;-84
2022/11/09 10:18:08;;;;;;;13.52;3.63;;;14.20;99.90;;;;;;5075896;28;20044;-84
2022/11/09 10:20:54;;;;;;;8.73;2.28;;;14.30;99.90;;;;;;5092040;28;20079;-84
2022/11/09 10:23:40;;;;;;;9.10;2.22;;;14.20;99.90;;;;;;5090358;28;20060;-84
2022/11/09 10:26:20;;;;;;;14.38;3.33;;;14.10;99.90;;;;;;5091531;28;20386;-84
2022/11/09 10:28:52;;;;;;;14.63;3.65;;;14.10;99.90;;;;;;5091245;28;20051;-84
2022/11/09 10:31:20;;;;;;;10.73;2.05;;;14.20;99.90;;;;;;5075135;28;20081;-84
2022/11/09 10:33:52;;;;;;;11.13;2.65;;;14.20;99.90;;;;;;5090999;28;20373;-84
2022/11/09 10:36:32;;;;;;;9.53;2.03;;;14.20;99.90;;;;;;5092394;28;20485;-84
2022/11/09 10:39:00;;;;;;;11.60;2.95;;;14.20;99.90;;;;;;5091280;28;20273;-84
2022/11/09 10:41:31;;;;;;;14.02;3.25;;;14.30;99.90;;;;;;5074498;28;20509;-84
2022/11/09 10:43:56;;;;;;;10.15;2.55;;;14.40;99.90;;;;;;5092167;28;20051;-84
2022/11/09 10:46:23;;;;;;;12.30;2.15;;;14.40;99.90;;;;;;5094274;28;20477;-83
2022/11/09 10:48:49;;;;;;;12.40;3.53;;;14.40;99.90;;;;;;5089683;28;20444;-83
2022/11/09 10:51:38;;;;;;;14.25;3.28;;;14.50;99.90;;;;;;5072086;28;20062;-84
2022/11/09 10:54:26;;;;;;;7.95;1.85;;;14.60;99.90;;;;;;5071180;28;20051;-84
2022/11/09 10:57:20;;;;;;;11.60;2.97;;;14.60;99.90;;;;;;5113479;27;20119;-84
2022/11/09 10:59:59;;;;;;;9.75;2.28;;;14.60;99.90;;;;;;5069574;28;20055;-84
2022/11/09 11:02:27;;;;;;;11.95;3.17;;;14.80;99.90;;;;;;5096479;28;20044;-84
2022/11/09 11:05:05;;;;;;;14.57;3.30;;;14.80;99.90;;;;;;5090061;28;20043;-84
2022/11/09 11:07:31;;;;;;;13.18;2.17;;;14.90;99.90;;;;;;5074297;28;20493;-84
2022/11/09 11:10:13;;;;;;;11.75;2.80;;;14.90;99.90;;;;;;5090278;28;20042;-84
2022/11/09 11:12:39;;;;;;;7.97;2.03;;;14.90;99.90;;;;;;5088525;28;20053;-84
2022/11/09 11:15:22;;;;;;;11.27;1.83;;;15.00;99.90;;;;;;5073243;28;20447;-84
2022/11/09 11:17:48;;;;;;;10.13;1.63;;;15.10;99.90;;;;;;5098983;28;20036;-84
2022/11/09 11:20:29;;;;;;;13.23;2.72;;;15.20;99.90;;;;;;5087709;28;20042;-84
2022/11/09 11:23:12;;;;;;;11.73;2.80;;;15.30;99.90;;;;;;5070569;28;20064;-84
2022/11/09 11:25:52;;;;;;;9.60;1.83;;;15.50;99.90;;;;;;5099321;28;20046;-84
2022/11/09 11:28:41;;;;;;;12.85;3.40;;;15.50;99.90;;;;;;5087779;28;20047;-84
2022/11/09 11:31:14;;;;;;;15.73;3.42;;;15.50;99.90;;;;;;5072964;28;20066;-84
2022/11/09 11:33:40;;;;;;;10.88;1.70;;;15.40;99.90;;;;;;5086731;28;20439;-84
2022/11/09 11:36:24;;;;;;;14.18;3.10;;;15.30;99.90;;;;;;5073651;28;20401;-84
2022/11/09 11:39:00;;;;;;;10.77;2.78;;;15.20;99.90;;;;;;5089606;28;20120;-84
2022/11/09 11:42:00;;;;;;;9.93;1.95;;;15.10;99.90;;;;;;5072411;28;20070;-84
2022/11/09 11:44:37;;;;;;;11.25;2.78;;;15.00;99.90;;;;;;5088471;28;20079;-84
2022/11/09 11:47:16;;;;;;;13.38;3.05;;;15.00;99.90;;;;;;5097577;28;20068;-84
2022/11/09 11:49:57;;;;;;;11.75;2.92;;;14.90;99.90;;;;;;5071072;28;20140;-84
2022/11/09 11:52:45;;;;;;;10.98;2.28;;;14.80;99.90;;;;;;5089521;28;20470;-84
2022/11/09 11:55:21;;;;;;;10.18;1.48;;;14.60;99.90;;;;;;5089961;28;20089;-84
2022/11/09 11:58:16;;;;;;;14.25;3.28;;;14.50;99.90;;;;;;5073311;28;20040;-84
2022/11/09 12:01:01;;;;;;;14.88;3.15;;;14.60;99.90;;;;;;5073500;28;20447;-84
2022/11/09 12:03:41;;;;;;;14.90;3.63;;;14.50;99.90;;;;;;5088729;28;20497;-84
2022/11/09 12:06:29;;;;;;;14.20;1.83;;;14.60;99.90;;;;;;5087968;28;20038;-84
2022/11/09 12:09:12;;;;;;;13.20;2.80;;;14.60;99.90;;;;;;5088858;28;20036;-84
2022/11/09 12:12:09;;;;;;;16.30;3.17;;;14.90;99.90;;;;;;5090002;28;20051;-84
2022/11/09 12:15:12;;;;;;;11.73;3.35;;;15.40;99.90;;;;;;5072426;28;20040;-84
2022/11/09 12:18:05;;;;;;;9.00;1.90;;;15.60;99.90;;;;;;5087815;28;20079;-84
2022/11/09 12:20:51;;;;;;;5.75;1.33;;;15.30;99.90;;;;;;5090355;28;20044;-84
2022/11/09 12:23:25;;;;;;;7.03;1.40;;;15.10;99.90;;;;;;5083119;28;20032;-84
2022/11/09 12:26:02;;;;;;;12.02;2.60;;;15.00;99.90;;;;;;5072473;28;20040;-84
2022/11/09 12:28:47;;;;;;;9.85;2.40;;;15.00;99.90;;;;;;5089192;28;20032;-84
2022/11/09 12:31:28;;;;;;;10.52;2.55;;;14.90;99.90;;;;;;5089453;28;20071;-84
2022/11/09 12:34:04;;;;;;;8.27;1.48;;;14.80;99.90;;;;;;5088915;28;20069;-84
2022/11/09 12:36:57;;;;;;;10.68;2.40;;;14.70;99.90;;;;;;5089668;28;20036;-84
2022/11/09 12:39:27;;;;;;;8.02;1.55;;;14.60;99.90;;;;;;5097124;28;20079;-84
2022/11/09 12:42:05;;;;;;;11.07;2.78;;;14.80;99.90;;;;;;5073250;28;20048;-84
2022/11/09 12:45:06;;;;;;;12.70;2.60;;;15.30;99.90;;;;;;5087523;28;20072;-84
2022/11/09 12:47:43;;;;;;;9.10;1.60;;;15.90;99.90;;;;;;5081576;28;20048;-84
2022/11/09 12:50:14;;;;;;;11.95;3.08;;;15.80;99.90;;;;;;5089259;28;20058;-84
2022/11/09 12:52:42;;;;;;;11.20;2.65;;;15.70;99.90;;;;;;5071295;28;20139;-84
2022/11/09 12:55:17;;;;;;;10.15;2.97;;;15.60;99.90;;;;;;5071962;28;20130;-84
2022/11/09 12:57:47;;;;;;;13.73;2.88;;;15.60;99.90;;;;;;5089350;28;20090;-84
2022/11/09 13:00:34;;;;;;;11.25;2.80;;;16.60;99.90;;;;;;5072290;28;20506;-84